KOPF

Miami-Opa Locka Executive Airport

Miami, Florida, USA
METAR KOPF 171853Z 12013KT 10SM FEW035 FEW060 32/23 A3007 RMK AO2 SLP184 T03170233
Observed Flight Rules
Oct-17 @ 18:53 UTC (27 minutes ago) Visual Flight Rules
Wind Visibility Clouds
120° at 13 knots 10 miles
  • Few at 3,500' AGL
  • Few at 6,000' AGL
Temperatures Readings
Current 32°C / 90°F
Dewpoint 23°C / 73°F
Humidity 59%
Altimeter 30.07" Hg
Pressure 1018.4 hPa
Elevation 16
METAR KOPF 171853Z 12013KT 10SM FEW035 FEW060 32/23 A3007 RMK AO2 SLP184 T03170233
Observed Flight Rules
Oct-17 @ 18:53 UTC
(27 minutes ago)
VFR
Wind Visibility
120° at 13 knots 10 miles
Clouds
  • Few at 3,500' AGL
  • Few at 6,000' AGL
Temperature Dewpoint
32°C / 90°F 23°C / 73°F
Humidity Altimeter Pressure
59% 30.07" Hg 1018.4 hPa